Time;durP1;ratioP1;P1;durP2;ratioP2;P2;SDS_P1;SDS_P2;PMS_P1;PMS_P2;Temp;Humidity;BMP_temperature;BMP_pressure;BME280_temperature;BME280_humidity;BME280_pressure;Samples;Min_cycle;Max_cycle;Signal;HPM_P1;HPM_P2
2024/02/23 00:01:52;;;;;;;19.23;16.70;;;;;;;6.50;59.89;94320.88;4220421;28;20040;-69
2024/02/23 00:03:55;;;;;;;20.17;16.05;;;;;;;6.39;60.20;94328.88;4239647;27;20051;-67
2024/02/23 00:05:58;;;;;;;18.08;15.43;;;;;;;6.51;60.10;94330.31;4239433;27;20475;-69
2024/02/23 00:08:00;;;;;;;17.85;13.75;;;;;;;6.50;59.69;94318.28;4217996;28;20056;-69
2024/02/23 00:10:02;;;;;;;15.63;11.43;;;;;;;6.62;59.66;94328.50;4243134;27;20062;-69
2024/02/23 00:12:05;;;;;;;12.23;10.80;;;;;;;6.75;59.32;94319.41;4241540;27;20897;-72
2024/02/23 00:14:08;;;;;;;15.40;12.88;;;;;;;6.67;59.10;94315.88;4241336;27;20121;-68
2024/02/23 00:16:11;;;;;;;16.52;14.07;;;;;;;6.74;59.44;94327.34;4224512;28;20221;-68
2024/02/23 00:18:14;;;;;;;14.45;11.98;;;;;;;6.86;59.12;94318.38;4239716;27;20104;-69
2024/02/23 00:20:16;;;;;;;13.63;10.93;;;;;;;6.95;58.66;94309.69;4242820;28;20066;-70
2024/02/23 00:22:18;;;;;;;17.88;11.38;;;;;;;7.01;58.70;94313.47;4224066;28;20566;-69
2024/02/23 00:24:20;;;;;;;14.93;12.90;;;;;;;7.04;58.33;94313.19;4212994;28;20082;-71
2024/02/23 00:26:22;;;;;;;14.80;11.95;;;;;;;7.10;58.15;94317.81;4241378;28;20047;-70
2024/02/23 00:28:24;;;;;;;15.35;11.70;;;;;;;7.17;58.35;94315.44;4242303;28;20086;-69
2024/02/23 00:30:27;;;;;;;15.25;11.13;;;;;;;7.23;58.43;94320.06;4235818;28;20044;-70
2024/02/23 00:32:30;;;;;;;14.80;10.35;;;;;;;7.01;58.69;94307.44;4226976;28;20060;-70
2024/02/23 00:34:32;;;;;;;12.05;10.48;;;;;;;6.79;59.23;94319.91;4237150;28;20047;-70
2024/02/23 00:36:34;;;;;;;15.20;10.52;;;;;;;6.84;59.26;94329.88;4235364;28;20090;-69
2024/02/23 00:38:36;;;;;;;13.32;10.73;;;;;;;6.90;59.27;94309.28;4230051;28;20529;-68
2024/02/23 00:40:38;;;;;;;13.13;10.80;;;;;;;6.97;58.68;94310.34;4221381;28;20056;-66
2024/02/23 00:42:40;;;;;;;15.65;10.65;;;;;;;7.06;58.96;94320.88;4235751;28;20179;-68
2024/02/23 00:44:42;;;;;;;13.45;9.43;;;;;;;6.95;58.71;94288.84;4241565;28;20043;-68
2024/02/23 00:46:43;;;;;;;10.93;8.90;;;;;;;6.86;59.07;94299.31;4240812;28;20051;-67
2024/02/23 00:48:45;;;;;;;12.38;9.23;;;;;;;6.90;58.86;94301.47;4240750;28;20096;-69
2024/02/23 00:50:47;;;;;;;11.70;8.50;;;;;;;6.97;58.69;94296.53;4236528;28;20043;-69
2024/02/23 00:52:49;;;;;;;12.10;9.50;;;;;;;7.05;58.53;94308.78;4241347;28;20049;-69
2024/02/23 00:54:51;;;;;;;12.90;9.77;;;;;;;7.15;58.14;94288.72;4219840;28;20052;-70
2024/02/23 00:56:53;;;;;;;13.57;9.60;;;;;;;6.92;58.57;94277.91;4242039;28;20084;-69
2024/02/23 00:58:58;;;;;;;12.40;8.73;;;;;;;6.48;59.64;94283.75;4235743;28;20069;-68
2024/02/23 01:01:00;;;;;;;12.30;8.82;;;;;;;6.57;59.58;94301.09;4240580;28;20078;-69
2024/02/23 01:03:02;;;;;;;10.45;8.93;;;;;;;6.74;59.44;94293.50;4228787;28;20577;-70
2024/02/23 01:05:06;;;;;;;12.25;9.10;;;;;;;6.78;58.92;94288.84;4212343;28;20052;-69
2024/02/23 01:07:08;;;;;;;;;;;;;;;6.74;59.32;94296.09;4241233;28;20123;-67
2024/02/23 01:09:09;;;;;;;11.45;9.07;;;;;;;6.77;59.25;94288.00;4239079;28;19923;-70
2024/02/23 01:11:11;;;;;;;12.48;9.50;;;;;;;6.87;59.34;94291.38;4217812;28;20054;-70
2024/02/23 01:13:13;;;;;;;13.40;10.35;;;;;;;6.68;59.14;94265.44;4240160;28;20126;-68
2024/02/23 01:15:16;;;;;;;14.57;10.93;;;;;;;6.52;60.15;94284.31;4240055;28;20190;-69
2024/02/23 01:17:17;;;;;;;13.27;9.77;;;;;;;6.66;60.06;94298.59;4233789;28;20155;-72
2024/02/23 01:19:19;;;;;;;13.60;9.32;;;;;;;6.51;59.43;94265.25;4232570;28;20055;-69
2024/02/23 01:21:21;;;;;;;11.55;9.98;;;;;;;6.43;60.39;94270.38;4233646;28;20051;-69
2024/02/23 01:23:23;;;;;;;11.10;9.25;;;;;;;6.50;60.27;94284.44;4238354;27;20225;-68
2024/02/23 01:25:26;;;;;;;10.55;8.93;;;;;;;6.68;60.01;94279.28;4235592;27;20433;-69
2024/02/23 01:27:28;;;;;;;10.10;8.38;;;;;;;6.74;59.02;94273.50;4238004;27;20177;-70
2024/02/23 01:29:30;;;;;;;10.65;9.10;;;;;;;6.87;59.22;94275.75;4239694;27;20073;-70
2024/02/23 01:31:32;;;;;;;11.68;9.00;;;;;;;6.98;59.01;94266.91;4236598;27;20120;-70
2024/02/23 01:33:35;;;;;;;9.98;8.75;;;;;;;6.97;58.55;94253.06;4211307;28;20051;-69
2024/02/23 01:35:37;;;;;;;;;;;;;;;6.90;58.14;94245.97;4245670;27;20161;-69
2024/02/23 01:37:39;;;;;;;10.70;8.40;;;;;;;6.96;58.53;94261.03;4239190;27;19923;-68
2024/02/23 01:39:41;;;;;;;11.13;8.95;;;;;;;7.04;58.47;94281.13;4240540;27;20051;-68
2024/02/23 01:41:43;;;;;;;11.43;9.13;;;;;;;7.10;58.19;94275.34;4241725;27;20144;-68
2024/02/23 01:43:45;;;;;;;14.52;9.80;;;;;;;6.91;58.61;94243.25;4244731;27;20039;-70
2024/02/23 01:45:51;;;;;;;11.13;8.75;;;;;;;6.85;59.25;94262.06;4227016;28;20082;-69
2024/02/23 01:47:53;;;;;;;11.20;9.00;;;;;;;6.86;59.23;94232.47;4236930;27;20047;-68
2024/02/23 01:49:56;;;;;;;10.93;8.55;;;;;;;6.75;58.70;94243.06;4238195;27;20167;-69
2024/02/23 01:51:59;;;;;;;10.40;8.43;;;;;;;6.79;58.89;94260.03;4237622;27;20047;-70
2024/02/23 01:54:01;;;;;;;10.27;9.07;;;;;;;6.84;58.80;94270.84;4241720;27;20504;-70
2024/02/23 01:56:03;;;;;;;12.25;9.48;;;;;;;6.91;59.08;94271.88;4229673;27;20051;-69
2024/02/23 01:58:05;;;;;;;11.63;9.02;;;;;;;6.68;58.97;94240.22;4225088;28;20167;-70
2024/02/23 02:00:13;;;;;;;12.75;8.90;;;;;;;6.68;59.88;94234.22;4234718;27;20100;-68
2024/02/23 02:02:15;;;;;;;10.38;8.52;;;;;;;6.76;59.36;94253.34;4222643;28;20035;-70
2024/02/23 02:04:18;;;;;;;11.52;9.50;;;;;;;6.74;59.17;94244.03;4221723;28;20051;-70
2024/02/23 02:06:20;;;;;;;10.40;8.75;;;;;;;6.74;59.42;94246.66;4244845;27;20055;-69
2024/02/23 02:08:22;;;;;;;10.60;9.23;;;;;;;6.69;59.50;94241.03;4220233;28;20351;-71
2024/02/23 02:10:25;;;;;;;10.23;8.73;;;;;;;6.62;59.70;94240.81;4224277;28;20048;-68
2024/02/23 02:12:27;;;;;;;10.73;8.73;;;;;;;6.45;59.81;94228.59;4243997;27;20057;-70
2024/02/23 02:14:31;;;;;;;13.13;9.18;;;;;;;6.47;60.19;94242.28;4241931;27;20047;-69
2024/02/23 02:16:33;;;;;;;11.77;9.55;;;;;;;6.55;60.09;94224.16;4235368;27;20487;-70
2024/02/23 02:18:35;;;;;;;11.80;9.30;;;;;;;6.53;59.83;94236.50;4203363;28;20052;-70
2024/02/23 02:20:37;;;;;;;12.10;9.25;;;;;;;6.31;60.50;94232.50;4235211;27;20058;-69
2024/02/23 02:22:40;;;;;;;13.20;10.43;;;;;;;6.30;60.77;94243.84;4223834;28;20035;-69
2024/02/23 02:24:43;;;;;;;13.57;11.40;;;;;;;6.40;60.68;94242.03;4215516;28;20048;-68
2024/02/23 02:26:46;;;;;;;15.80;13.38;;;;;;;6.36;60.80;94222.47;4241784;27;20104;-71
2024/02/23 02:28:48;;;;;;;14.85;13.40;;;;;;;6.47;60.72;94245.69;4223894;27;20495;-69
2024/02/23 02:30:52;;;;;;;14.48;12.98;;;;;;;6.61;60.47;94243.59;4241016;27;20100;-69
2024/02/23 02:32:54;;;;;;;;;;;;;;;6.75;60.12;94249.09;4224441;28;20153;-69
2024/02/23 02:34:56;;;;;;;13.88;12.00;;;;;;;6.88;59.77;94255.72;4244161;27;20043;-69
2024/02/23 02:36:58;;;;;;;15.13;11.38;;;;;;;6.97;59.36;94247.84;4224576;28;20124;-69
2024/02/23 02:39:00;;;;;;;13.30;11.75;;;;;;;6.96;59.05;94233.19;4217667;28;20508;-69
2024/02/23 02:41:02;;;;;;;16.02;13.73;;;;;;;6.91;59.41;94240.63;4236684;27;20102;-71
2024/02/23 02:43:04;;;;;;;12.63;11.32;;;;;;;6.97;59.29;94247.84;4244153;27;20455;-68
2024/02/23 02:45:06;;;;;;;13.57;10.40;;;;;;;7.07;59.34;94244.34;4225114;28;20055;-68
2024/02/23 02:47:08;;;;;;;13.20;9.77;;;;;;;7.14;58.88;94259.25;4231750;27;20073;-67
2024/02/23 02:49:10;;;;;;;14.10;10.23;;;;;;;7.09;58.78;94232.00;4241503;27;20076;-70
2024/02/23 02:51:15;;;;;;;13.73;9.70;;;;;;;6.94;59.67;94242.94;4235594;27;20142;-69
2024/02/23 02:53:18;;;;;;;14.90;10.10;;;;;;;6.96;59.78;94248.81;4243173;27;20428;-69
2024/02/23 02:55:20;;;;;;;10.48;9.15;;;;;;;6.83;59.98;94242.34;4221869;28;20043;-67
2024/02/23 02:57:22;;;;;;;11.85;9.65;;;;;;;6.87;59.69;94254.09;4241241;27;20062;-70
2024/02/23 02:59:23;;;;;;;13.75;9.20;;;;;;;6.93;59.77;94248.31;4243894;27;20059;-70
2024/02/23 03:01:29;;;;;;;12.95;9.35;;;;;;;6.84;59.87;94239.59;4243139;27;20073;-67
2024/02/23 03:03:31;;;;;;;12.52;10.57;;;;;;;6.82;60.06;94243.28;4238255;27;20047;-68
2024/02/23 03:05:32;;;;;;;13.75;10.18;;;;;;;6.89;60.51;94237.34;4243600;27;20150;-69
2024/02/23 03:07:34;;;;;;;12.40;10.15;;;;;;;6.91;59.85;94245.84;4241220;27;20051;-70
2024/02/23 03:09:36;;;;;;;10.98;9.40;;;;;;;6.92;60.09;94255.28;4222769;28;20467;-71
2024/02/23 03:11:38;;;;;;;10.57;9.43;;;;;;;6.99;60.00;94263.34;4240891;27;20055;-70
2024/02/23 03:13:41;;;;;;;11.60;9.63;;;;;;;7.05;59.44;94257.53;4237160;27;20556;-70
2024/02/23 03:15:42;;;;;;;13.95;11.10;;;;;;;6.76;60.23;94247.31;4243128;27;20139;-68
2024/02/23 03:17:44;;;;;;;14.05;10.80;;;;;;;6.74;60.49;94254.44;4236634;27;20085;-69
2024/02/23 03:19:46;;;;;;;12.50;10.48;;;;;;;6.78;60.87;94245.38;4239885;27;20051;-68
2024/02/23 03:21:48;;;;;;;12.82;10.15;;;;;;;6.68;60.62;94240.22;4238309;27;20051;-69
2024/02/23 03:23:50;;;;;;;11.82;10.10;;;;;;;6.80;60.74;94247.81;4242117;27;20423;-69
2024/02/23 03:25:52;;;;;;;12.70;9.82;;;;;;;6.88;60.34;94250.50;4240736;27;20252;-68
2024/02/23 03:27:55;;;;;;;13.43;10.48;;;;;;;6.97;60.15;94253.06;4219748;28;20044;-68
2024/02/23 03:29:56;;;;;;;12.63;11.07;;;;;;;6.88;59.94;94237.50;4238742;27;20074;-70
2024/02/23 03:31:58;;;;;;;12.43;10.38;;;;;;;6.90;60.20;94259.00;4240877;27;20061;-70
2024/02/23 03:34:02;;;;;;;13.60;10.10;;;;;;;6.85;60.27;94254.25;4241732;27;20113;-67
2024/02/23 03:36:04;;;;;;;12.88;11.07;;;;;;;6.92;60.26;94242.25;4243207;27;20606;-69
2024/02/23 03:38:06;;;;;;;13.40;10.48;;;;;;;6.88;60.53;94240.09;4240609;27;20047;-69
2024/02/23 03:40:10;;;;;;;11.60;10.38;;;;;;;6.94;60.67;94249.94;4237915;27;20501;-68
2024/02/23 03:42:11;;;;;;;;;;;;;;;7.00;60.18;94249.34;4242420;27;20055;-69
2024/02/23 03:44:13;;;;;;;12.82;10.32;;;;;;;7.06;60.13;94229.72;4240802;27;19956;-70
2024/02/23 03:46:16;;;;;;;12.43;10.48;;;;;;;6.90;60.59;94231.16;4239844;27;20373;-69
2024/02/23 03:48:18;;;;;;;14.40;10.20;;;;;;;6.85;61.08;94240.41;4240273;27;20411;-69
2024/02/23 03:50:20;;;;;;;14.50;10.95;;;;;;;6.91;60.75;94258.06;4225115;28;20078;-67
2024/02/23 03:52:22;;;;;;;13.75;10.80;;;;;;;6.88;60.91;94238.34;4231901;27;20509;-69
2024/02/23 03:54:24;;;;;;;12.45;10.15;;;;;;;6.93;60.80;94248.31;4243600;27;20410;-69
2024/02/23 03:56:26;;;;;;;11.93;10.65;;;;;;;6.85;60.83;94241.22;4233223;27;20090;-69
2024/02/23 03:58:28;;;;;;;14.15;11.00;;;;;;;6.69;60.92;94243.63;4218213;28;20039;-69
2024/02/23 04:00:31;;;;;;;12.05;10.40;;;;;;;6.62;61.72;94243.41;4227213;27;20051;-68
2024/02/23 04:02:32;;;;;;;12.88;10.65;;;;;;;6.70;61.74;94253.09;4218838;28;20118;-68
2024/02/23 04:04:34;;;;;;;12.70;10.45;;;;;;;6.77;61.57;94230.72;4235441;27;20108;-70
2024/02/23 04:06:36;;;;;;;13.95;11.65;;;;;;;6.67;61.53;94243.00;4242649;27;20047;-68
2024/02/23 04:08:38;;;;;;;15.80;11.75;;;;;;;6.68;61.76;94255.03;4242802;27;20051;-70
2024/02/23 04:10:40;;;;;;;13.73;11.48;;;;;;;6.74;61.59;94246.66;4223466;28;20155;-69
2024/02/23 04:12:43;;;;;;;14.27;11.07;;;;;;;6.79;61.32;94251.41;4238281;27;20066;-70
2024/02/23 04:14:45;;;;;;;13.73;11.52;;;;;;;6.82;61.22;94261.50;4243218;27;20050;-69
2024/02/23 04:16:47;;;;;;;16.00;11.48;;;;;;;6.77;61.34;94256.75;4242882;27;20133;-70
2024/02/23 04:18:49;;;;;;;12.15;10.13;;;;;;;6.25;61.97;94244.28;4234066;27;20475;-71
2024/02/23 04:20:51;;;;;;;15.57;10.77;;;;;;;6.31;62.86;94250.72;4242298;27;20136;-69
2024/02/23 04:22:52;;;;;;;14.00;10.50;;;;;;;6.43;62.39;94265.19;4241567;27;20043;-71
2024/02/23 04:24:55;;;;;;;14.55;11.10;;;;;;;6.52;62.00;94261.69;4243006;28;20051;-69
2024/02/23 04:26:56;;;;;;;17.45;14.15;;;;;;;6.68;62.01;94253.25;4242098;28;20047;-68
2024/02/23 04:28:58;;;;;;;15.55;11.23;;;;;;;6.55;61.98;94248.38;4220901;28;20051;-70
2024/02/23 04:31:00;;;;;;;15.60;11.50;;;;;;;6.62;61.82;94255.63;4239779;28;20300;-70
2024/02/23 04:33:02;;;;;;;13.93;10.85;;;;;;;6.70;61.62;94248.72;4234997;28;20127;-68
2024/02/23 04:35:05;;;;;;;13.45;11.20;;;;;;;6.78;60.82;94261.00;4232510;28;20162;-70
2024/02/23 04:37:07;;;;;;;14.43;11.05;;;;;;;6.89;60.91;94252.97;4238839;28;20560;-70
2024/02/23 04:39:09;;;;;;;13.88;11.52;;;;;;;6.92;60.89;94264.88;4232653;28;20515;-66
2024/02/23 04:41:11;;;;;;;13.70;10.85;;;;;;;6.87;60.84;94260.13;4232313;28;20241;-67
2024/02/23 04:43:13;;;;;;;14.63;10.80;;;;;;;6.80;61.12;94258.22;4242412;28;20119;-71
2024/02/23 04:45:15;;;;;;;14.32;11.50;;;;;;;6.80;61.63;94258.22;4221107;28;20044;-71
2024/02/23 04:47:17;;;;;;;18.23;11.90;;;;;;;6.85;61.34;94264.66;4218521;28;20052;-71
2024/02/23 04:49:20;;;;;;;13.02;11.00;;;;;;;6.90;61.04;94270.22;4205828;28;20078;-71
2024/02/23 04:51:23;;;;;;;15.85;11.20;;;;;;;6.90;60.73;94270.22;4233578;28;20047;-70
2024/02/23 04:53:25;;;;;;;14.35;11.57;;;;;;;6.88;60.90;94264.38;4219134;28;20604;-67
2024/02/23 04:55:27;;;;;;;14.23;11.32;;;;;;;6.87;60.71;94265.31;4242376;28;20043;-68
2024/02/23 04:57:29;;;;;;;12.80;10.80;;;;;;;6.81;60.80;94265.09;4207953;28;20048;-68
2024/02/23 04:59:32;;;;;;;12.68;11.20;;;;;;;6.80;60.99;94266.03;4236926;27;20051;-70
2024/02/23 05:01:37;;;;;;;12.63;10.80;;;;;;;6.30;61.48;94262.06;4241244;27;20053;-68
2024/02/23 05:03:39;;;;;;;15.30;10.82;;;;;;;5.74;63.46;94250.72;4243500;27;20062;-72
2024/02/23 05:05:42;;;;;;;16.88;11.88;;;;;;;5.84;63.73;94274.09;4243771;27;20062;-70
2024/02/23 05:07:44;;;;;;;15.95;11.60;;;;;;;5.99;63.28;94280.53;4243619;27;20499;-72
2024/02/23 05:09:46;;;;;;;18.25;11.75;;;;;;;6.11;63.29;94273.38;4241328;27;20503;-72
2024/02/23 05:11:48;;;;;;;16.10;11.73;;;;;;;6.25;62.67;94274.69;4244964;27;20047;-70
2024/02/23 05:13:50;;;;;;;13.85;11.15;;;;;;;6.32;61.89;94287.00;4222457;28;20050;-66
2024/02/23 05:15:55;;;;;;;15.82;11.80;;;;;;;6.38;61.86;94288.19;4237498;27;20104;-68
2024/02/23 05:17:57;;;;;;;16.13;12.65;;;;;;;6.35;61.96;94278.09;4225425;28;20070;-68
2024/02/23 05:19:59;;;;;;;24.33;12.82;;;;;;;6.34;62.25;94295.44;4243910;27;20360;-68
2024/02/23 05:22:01;;;;;;;15.00;11.82;;;;;;;6.41;61.97;94298.31;4219461;28;20075;-71
2024/02/23 05:24:05;;;;;;;15.00;11.63;;;;;;;6.53;61.91;94296.34;4218920;28;20502;-70
2024/02/23 05:26:08;;;;;;;16.85;12.73;;;;;;;6.65;61.40;94299.59;4239625;27;20047;-71
2024/02/23 05:28:09;;;;;;;17.02;12.07;;;;;;;6.69;60.76;94285.28;4238717;27;20047;-70
2024/02/23 05:30:12;;;;;;;20.88;12.00;;;;;;;6.78;60.71;94283.63;4243752;27;20287;-71
2024/02/23 05:32:14;;;;;;;19.67;12.68;;;;;;;6.80;61.05;94300.72;4243435;27;20108;-70
2024/02/23 05:34:16;;;;;;;17.65;12.55;;;;;;;6.85;60.65;94297.69;4244906;27;20062;-69
2024/02/23 05:36:18;;;;;;;15.90;12.75;;;;;;;6.84;60.53;94307.28;4239639;27;20070;-68
2024/02/23 05:38:20;;;;;;;19.25;13.77;;;;;;;6.92;60.73;94294.34;4243180;27;20129;-70
2024/02/23 05:40:22;;;;;;;21.08;13.98;;;;;;;6.31;62.09;94289.72;4245113;27;20107;-68
2024/02/23 05:42:24;;;;;;;18.67;14.70;;;;;;;6.54;62.58;94296.22;4242385;27;20462;-70
2024/02/23 05:44:26;;;;;;;21.08;12.98;;;;;;;6.74;61.74;94294.31;4244485;27;20112;-68
2024/02/23 05:46:29;;;;;;;20.80;12.82;;;;;;;7.02;61.12;94303.91;4234177;27;20525;-68
2024/02/23 05:48:31;;;;;;;15.38;11.80;;;;;;;7.26;60.20;94321.56;4240120;27;20047;-70
2024/02/23 05:50:33;;;;;;;22.30;12.43;;;;;;;7.48;58.70;94295.03;4232963;27;20064;-70
2024/02/23 05:52:37;;;;;;;19.70;13.30;;;;;;;7.00;59.88;94298.81;4240857;27;20047;-66
2024/02/23 05:54:39;;;;;;;19.95;12.30;;;;;;;7.03;60.08;94321.16;4239506;27;20402;-68
2024/02/23 05:56:41;;;;;;;14.35;12.75;;;;;;;7.09;60.13;94315.34;4244596;27;20047;-68
2024/02/23 05:58:43;;;;;;;15.18;12.57;;;;;;;6.26;61.37;94284.97;4241644;27;20447;-69
2024/02/23 06:00:45;;;;;;;21.88;12.52;;;;;;;6.47;61.75;94310.72;4236834;27;20154;-69
2024/02/23 06:02:47;;;;;;;18.70;12.48;;;;;;;6.68;61.74;94320.91;4222309;28;20138;-70
2024/02/23 06:04:49;;;;;;;23.60;12.15;;;;;;;6.90;60.75;94330.13;4223497;28;20048;-72
2024/02/23 06:06:51;;;;;;;18.05;12.73;;;;;;;7.05;60.36;94309.59;4216222;28;20047;-71
2024/02/23 06:08:53;;;;;;;17.40;12.68;;;;;;;6.82;60.51;94313.59;4244673;27;20047;-69
2024/02/23 06:10:55;;;;;;;14.43;11.88;;;;;;;6.92;60.49;94333.41;4231323;27;20054;-70
2024/02/23 06:12:57;;;;;;;15.63;12.18;;;;;;;7.04;60.00;94326.22;4243440;27;20039;-71
2024/02/23 06:15:02;;;;;;;19.50;13.02;;;;;;;7.23;59.96;94320.06;4225197;28;20047;-69
2024/02/23 06:17:06;;;;;;;17.88;12.95;;;;;;;7.37;59.63;94327.34;4217166;28;20456;-69
2024/02/23 06:19:08;;;;;;;22.30;14.35;;;;;;;7.49;59.13;94321.94;4242750;27;20134;-72
2024/02/23 06:21:15;;;;;;;23.13;13.50;;;;;;;7.64;58.79;94322.22;4224429;28;20131;-68
2024/02/23 06:23:17;;;;;;;24.13;13.98;;;;;;;7.68;58.51;94332.22;4244873;27;20135;-71
2024/02/23 06:25:19;;;;;;;16.92;12.85;;;;;;;7.73;58.38;94332.56;4244841;27;20055;-70
2024/02/23 06:27:21;;;;;;;17.42;12.43;;;;;;;7.80;57.99;94323.16;4240939;27;20058;-69
2024/02/23 06:29:24;;;;;;;21.88;14.00;;;;;;;7.70;57.84;94327.66;4241484;27;20467;-70
2024/02/23 06:31:26;;;;;;;17.65;12.38;;;;;;;7.70;58.27;94334.63;4244438;27;20139;-72
2024/02/23 06:33:29;;;;;;;17.90;12.38;;;;;;;7.87;58.03;94338.19;4243346;27;20553;-70
2024/02/23 06:35:31;;;;;;;17.25;12.50;;;;;;;8.04;57.93;94334.75;4243647;27;20086;-69
2024/02/23 06:37:33;;;;;;;23.60;14.57;;;;;;;7.98;57.36;94323.16;4243916;27;20127;-70
2024/02/23 06:39:35;;;;;;;28.65;14.23;;;;;;;8.00;57.22;94331.63;4242297;27;20067;-70
2024/02/23 06:41:38;;;;;;;21.27;13.50;;;;;;;8.06;57.23;94343.22;4239481;27;20055;-69
2024/02/23 06:43:40;;;;;;;18.95;13.30;;;;;;;8.16;56.50;94343.97;4232642;27;20600;-71
2024/02/23 06:45:42;;;;;;;15.20;12.75;;;;;;;8.31;57.04;94336.41;4235796;27;20047;-69
2024/02/23 06:47:45;;;;;;;14.55;12.20;;;;;;;8.47;56.54;94322.63;4239955;27;20069;-70
2024/02/23 06:49:47;;;;;;;20.88;12.48;;;;;;;8.61;55.91;94329.91;4237942;27;20464;-70
2024/02/23 06:51:48;;;;;;;15.48;13.30;;;;;;;8.75;55.96;94331.09;4239822;27;20039;-71
2024/02/23 06:53:50;;;;;;;21.92;13.63;;;;;;;8.84;55.81;94339.81;4243826;27;20039;-69
2024/02/23 06:55:52;;;;;;;24.13;14.65;;;;;;;8.84;55.42;94329.34;4243621;27;20135;-69
2024/02/23 06:57:54;;;;;;;21.40;12.93;;;;;;;8.92;55.53;94344.22;4238616;27;20043;-70
2024/02/23 06:59:56;;;;;;;18.92;12.95;;;;;;;9.02;54.65;94343.13;4242946;27;20050;-69
2024/02/23 07:01:58;;;;;;;16.83;12.98;;;;;;;8.88;54.53;94335.88;4243376;27;20047;-70
2024/02/23 07:04:00;;;;;;;16.80;12.73;;;;;;;8.89;54.88;94341.94;4231966;27;20043;-71
2024/02/23 07:06:03;;;;;;;17.90;12.57;;;;;;;9.00;55.06;94350.31;4236057;27;20138;-71
2024/02/23 07:08:05;;;;;;;16.60;13.30;;;;;;;9.10;54.50;94351.97;4240210;27;20509;-70
2024/02/23 07:10:08;;;;;;;17.02;12.73;;;;;;;9.02;53.94;94340.50;4232287;27;20138;-70
2024/02/23 07:12:13;;;;;;;34.78;15.57;;;;;;;8.92;54.82;94337.19;4239093;27;20047;-70
2024/02/23 07:14:16;;;;;;;18.02;13.35;;;;;;;8.94;55.19;94345.69;4223259;27;20139;-68
2024/02/23 07:16:19;;;;;;;24.42;14.00;;;;;;;9.04;55.25;94340.38;4238921;27;20446;-70
2024/02/23 07:18:20;;;;;;;19.98;13.77;;;;;;;8.68;55.00;94318.84;4222441;28;20477;-68
2024/02/23 07:20:22;;;;;;;23.10;13.50;;;;;;;8.74;55.73;94336.50;4244200;27;20107;-69
2024/02/23 07:22:24;;;;;;;21.83;13.55;;;;;;;8.59;55.36;94324.00;4239688;27;20140;-69
2024/02/23 07:24:26;;;;;;;17.05;12.82;;;;;;;8.52;55.54;94336.06;4237317;27;20039;-72
2024/02/23 07:26:29;;;;;;;19.77;13.00;;;;;;;8.71;55.68;94332.41;4237733;27;20416;-69
2024/02/23 07:28:32;;;;;;;20.48;13.30;;;;;;;8.73;54.85;94327.00;4236748;27;20066;-69
2024/02/23 07:30:37;;;;;;;15.32;12.45;;;;;;;8.88;55.67;94330.66;4237623;27;20095;-72
2024/02/23 07:32:39;;;;;;;22.75;13.88;;;;;;;8.89;55.50;94321.84;4235886;27;20060;-71
2024/02/23 07:34:42;;;;;;;30.77;15.50;;;;;;;8.92;55.74;94324.13;4242191;27;20437;-70
2024/02/23 07:36:44;;;;;;;20.00;14.10;;;;;;;9.08;55.37;94330.38;4223129;28;20075;-69
2024/02/23 07:38:47;;;;;;;18.75;13.60;;;;;;;9.08;55.25;94315.56;4240937;27;20467;-69
2024/02/23 07:40:49;;;;;;;19.50;13.65;;;;;;;9.19;55.83;94325.69;4238423;27;20137;-72
2024/02/23 07:42:51;;;;;;;20.60;13.32;;;;;;;9.35;55.07;94324.91;4241077;27;20189;-70
2024/02/23 07:44:53;;;;;;;16.33;13.60;;;;;;;9.30;54.81;94329.81;4243250;27;20046;-69
2024/02/23 07:46:55;;;;;;;23.58;14.43;;;;;;;9.42;54.87;94325.91;4243266;27;20094;-71
2024/02/23 07:48:57;;;;;;;21.58;14.52;;;;;;;9.38;55.12;94327.22;4234242;27;20051;-70
2024/02/23 07:50:59;;;;;;;19.73;15.77;;;;;;;9.25;55.67;94336.47;4240407;27;20048;-70
2024/02/23 07:53:01;;;;;;;21.17;15.10;;;;;;;9.38;55.46;94327.22;4228370;27;20515;-68
2024/02/23 07:55:05;;;;;;;19.60;15.05;;;;;;;8.94;57.22;94324.81;4227452;27;20108;-71
2024/02/23 07:57:07;;;;;;;23.20;16.27;;;;;;;8.92;57.46;94320.72;4239049;27;20143;-70
2024/02/23 07:59:09;;;;;;;19.92;15.32;;;;;;;9.18;57.35;94328.47;4242105;27;20505;-72
2024/02/23 08:01:11;;;;;;;23.77;15.80;;;;;;;9.16;56.93;94325.19;4243241;27;20047;-70
2024/02/23 08:03:13;;;;;;;18.20;14.57;;;;;;;8.96;57.42;94328.06;4242602;27;20115;-70
2024/02/23 08:05:15;;;;;;;20.25;15.93;;;;;;;8.96;57.54;94320.22;4237659;27;20142;-70
2024/02/23 08:07:18;;;;;;;26.17;15.88;;;;;;;8.77;58.53;94323.09;4218487;28;20577;-69
2024/02/23 08:09:22;;;;;;;25.92;16.52;;;;;;;8.74;58.56;94323.44;4242785;27;20043;-71
2024/02/23 08:11:23;;;;;;;21.77;15.65;;;;;;;8.84;58.40;94318.06;4232787;27;20136;-69
2024/02/23 08:13:26;;;;;;;24.85;15.60;;;;;;;9.16;58.16;94312.13;4242660;27;20658;-69
2024/02/23 08:15:28;;;;;;;25.67;15.13;;;;;;;9.21;57.30;94309.88;4235831;27;20058;-70
2024/02/23 08:17:30;;;;;;;18.55;15.07;;;;;;;9.35;57.62;94297.97;4234454;27;20456;-69
2024/02/23 08:19:32;;;;;;;23.13;15.05;;;;;;;9.66;56.94;94302.56;4217591;28;20047;-72
2024/02/23 08:21:34;;;;;;;25.05;15.73;;;;;;;9.89;56.06;94305.34;4242040;27;20069;-72
2024/02/23 08:23:36;;;;;;;19.75;14.38;;;;;;;10.06;54.85;94309.56;4235908;28;20098;-71
2024/02/23 08:25:38;;;;;;;24.33;14.48;;;;;;;10.11;54.93;94312.53;4234422;27;20073;-71
2024/02/23 08:27:43;;;;;;;22.23;14.70;;;;;;;10.20;55.04;94314.16;4242924;28;20187;-73
2024/02/23 08:29:45;;;;;;;23.23;14.43;;;;;;;10.32;55.30;94309.41;4237335;28;20055;-71
2024/02/23 08:31:47;;;;;;;17.73;14.40;;;;;;;10.33;54.56;94316.28;4224332;28;20047;-70
2024/02/23 08:33:49;;;;;;;26.00;16.48;;;;;;;10.33;55.29;94318.09;4225646;27;20419;-70
2024/02/23 08:35:51;;;;;;;20.27;15.90;;;;;;;10.18;55.47;94305.63;4246641;27;20513;-71
2024/02/23 08:37:53;;;;;;;24.73;16.25;;;;;;;10.24;55.94;94307.59;4244556;27;20039;-69
2024/02/23 08:39:54;;;;;;;22.38;15.10;;;;;;;10.55;55.04;94304.28;4246755;27;20039;-70
2024/02/23 08:41:56;;;;;;;22.77;15.68;;;;;;;10.80;54.77;94301.59;4242769;27;20047;-68
2024/02/23 08:43:58;;;;;;;20.08;15.45;;;;;;;10.70;54.62;94303.59;4246579;27;20047;-73
2024/02/23 08:46:00;;;;;;;22.88;14.75;;;;;;;10.73;54.20;94313.72;4232954;27;20139;-69
2024/02/23 08:48:09;;;;;;;18.20;14.43;;;;;;;10.60;55.00;94309.84;4239195;27;20096;-72
2024/02/23 08:50:11;;;;;;;21.02;15.15;;;;;;;10.72;54.43;94304.22;4245454;27;20130;-70
2024/02/23 08:52:13;;;;;;;21.27;14.77;;;;;;;10.78;54.14;94306.19;4244901;27;20423;-72
2024/02/23 08:54:15;;;;;;;21.58;14.68;;;;;;;11.19;53.65;94309.41;4245642;27;20118;-70
2024/02/23 08:56:17;;;;;;;20.27;15.23;;;;;;;11.51;52.44;94302.34;4244925;27;20119;-69
2024/02/23 08:58:18;;;;;;;21.98;15.57;;;;;;;11.57;51.65;94299.03;4239348;27;20118;-71
2024/02/23 09:00:20;;;;;;;17.20;13.38;;;;;;;11.55;51.66;94300.19;4245917;27;20053;-70
2024/02/23 09:02:22;;;;;;;16.58;12.00;;;;;;;11.74;51.39;94302.31;4245367;27;20043;-69
2024/02/23 09:04:24;;;;;;;17.95;11.48;;;;;;;11.82;50.49;94286.53;4245080;27;20043;-70
2024/02/23 09:06:26;;;;;;;14.93;11.38;;;;;;;11.79;50.64;94296.56;4237086;27;20053;-72
2024/02/23 09:08:28;;;;;;;17.63;11.10;;;;;;;11.86;50.77;94297.50;4244030;27;20143;-71
2024/02/23 09:10:30;;;;;;;12.70;9.50;;;;;;;11.72;50.53;94287.75;4244291;27;20159;-72
2024/02/23 09:12:32;;;;;;;12.30;8.90;;;;;;;11.93;49.95;94287.13;4226951;28;20062;-71
2024/02/23 09:14:37;;;;;;;11.80;8.70;;;;;;;12.20;49.14;94293.63;4244833;27;20146;-70
2024/02/23 09:16:41;;;;;;;14.20;8.82;;;;;;;12.35;48.84;94293.66;4243010;27;20126;-70
2024/02/23 09:18:43;;;;;;;13.48;8.77;;;;;;;12.49;48.03;94295.44;4237950;27;20066;-70
2024/02/23 09:20:45;;;;;;;7.85;6.05;;;;;;;12.37;47.68;94297.72;4245195;27;20050;-69
2024/02/23 09:22:47;;;;;;;8.32;5.45;;;;;;;12.28;47.87;94294.38;4243892;27;20112;-68
2024/02/23 09:24:49;;;;;;;6.78;5.43;;;;;;;12.39;47.49;94289.63;4238574;27;20052;-71
2024/02/23 09:26:51;;;;;;;8.50;5.35;;;;;;;12.34;47.58;94294.63;4245510;27;20078;-71
2024/02/23 09:28:53;;;;;;;8.65;5.28;;;;;;;12.39;47.51;94303.63;4241359;27;20496;-70
2024/02/23 09:30:55;;;;;;;9.90;5.88;;;;;;;12.62;47.57;94292.19;4245093;27;20051;-73